Airport View

Enter AWOS ICAO identifier for current METAR.

ex. KFNL

PAGM 211824Z AUTO 05016KT 10SM FEW027 OVC032 05/00 A2953 RMK AO2

21 Sep 2019 23:23

Frequency: 125.9

Phone: 907-985-5733

Other Area AWOS: PASA - UHMD

TAF PAOM 211730Z 2118/2218 00000KT P6SM SCT030 FM212000 10008KT P6SM BKN050 FM220600 06010KT P6SM VCSH BKN040